Time;durP1;ratioP1;P1;durP2;ratioP2;P2;SDS_P1;SDS_P2;PMS_P1;PMS_P2;Temp;Humidity;BMP_temperature;BMP_pressure;BME280_temperature;BME280_humidity;BME280_pressure;Samples;Min_cycle;Max_cycle;Signal;HPM_P1;HPM_P2
2022/07/02 00:01:07;;;;;;;0.30;0.30;;;;;;;29.62;37.14;99539.60;1869338;76;28063;-61
2022/07/02 00:03:57;;;;;;;0.50;0.50;;;;;;;29.63;37.13;99546.81;1867004;76;28244;-60
2022/07/02 00:06:48;;;;;;;0.50;0.50;;;;;;;29.66;37.15;99544.05;1855496;76;28170;-60
2022/07/02 00:09:38;;;;;;;0.47;0.47;;;;;;;29.67;37.11;99545.69;1834194;77;28147;-59
2022/07/02 00:12:29;;;;;;;0.53;0.50;;;;;;;29.65;37.11;99543.75;1842201;76;28004;-59
2022/07/02 00:15:18;;;;;;;0.70;0.45;;;;;;;29.67;37.11;99541.53;1869524;76;28278;-60
2022/07/02 00:18:06;;;;;;;0.60;0.60;;;;;;;29.66;37.09;99543.49;1869263;76;28212;-60
2022/07/02 00:20:55;;;;;;;0.40;0.40;;;;;;;29.64;37.14;99543.50;1850174;76;28204;-60
2022/07/02 00:23:45;;;;;;;0.40;0.40;;;;;;;29.62;37.14;99545.14;1869221;76;28098;-59
2022/07/02 00:26:35;;;;;;;0.40;0.40;;;;;;;29.63;37.17;99550.97;1869418;76;28257;-60
2022/07/02 00:29:46;;;;;;;0.50;0.50;;;;;;;29.62;37.21;99549.84;1869377;76;28336;-60
2022/07/02 00:32:36;;;;;;;0.63;0.43;;;;;;;29.63;37.22;99552.90;1799419;75;28271;-59
2022/07/02 00:35:26;;;;;;;0.50;0.40;;;;;;;29.59;37.25;99554.03;1846161;76;28196;-59
2022/07/02 00:38:14;;;;;;;0.47;0.47;;;;;;;29.59;37.24;99552.64;1868754;76;28102;-60
2022/07/02 00:41:04;;;;;;;0.40;0.40;;;;;;;29.63;37.18;99559.27;1868913;76;28194;-60
2022/07/02 00:43:54;;;;;;;0.40;0.40;;;;;;;29.65;37.19;99561.20;1852648;76;28225;-59
2022/07/02 00:46:45;;;;;;;0.40;0.40;;;;;;;29.61;37.21;99557.89;1869220;76;28021;-59
2022/07/02 00:49:36;;;;;;;1.60;0.60;;;;;;;29.61;37.20;99563.42;1869319;76;28111;-61
2022/07/02 00:52:25;;;;;;;0.47;0.45;;;;;;;29.61;37.25;99562.88;1869378;76;28517;-61
2022/07/02 00:55:14;;;;;;;0.40;0.40;;;;;;;29.63;37.20;99563.97;1837843;77;28298;-60
2022/07/02 00:58:03;;;;;;;0.60;0.60;;;;;;;29.63;37.21;99560.66;1826927;77;28248;-61
2022/07/02 01:00:51;;;;;;;0.60;0.60;;;;;;;29.62;37.24;99563.69;1859286;76;28184;-61
2022/07/02 01:03:41;;;;;;;0.30;0.30;;;;;;;29.63;37.22;99562.05;1857338;77;28051;-59
2022/07/02 01:06:33;;;;;;;0.60;0.53;;;;;;;29.65;37.21;99569.51;1869000;76;28154;-61
2022/07/02 01:12:29;;;;;;;0.40;0.40;;;;;;;29.64;37.19;99565.06;1835392;77;28233;-61
2022/07/02 01:15:18;;;;;;;0.60;0.60;;;;;;;29.60;37.28;99563.97;1869094;76;27989;-60
2022/07/02 01:18:07;;;;;;;1.55;0.60;;;;;;;29.60;37.28;99559.82;1868977;76;28011;-59
2022/07/02 01:20:56;;;;;;;0.60;0.60;;;;;;;29.60;37.30;99558.44;1839347;77;28229;-60
2022/07/02 01:23:44;;;;;;;0.53;0.53;;;;;;;29.62;37.28;99558.98;1857338;77;28166;-59
2022/07/02 01:26:33;;;;;;;0.50;0.50;;;;;;;29.64;37.25;99565.06;1857300;77;27989;-60
2022/07/02 01:29:21;;;;;;;0.60;0.60;;;;;;;29.62;37.29;99563.14;1857476;77;28036;-60
2022/07/02 01:32:11;;;;;;;0.50;0.50;;;;;;;29.62;37.28;99565.91;1868686;75;28144;-60
2022/07/02 01:35:05;;;;;;;0.53;0.53;;;;;;;29.63;37.26;99570.34;1856216;75;28249;-60
2022/07/02 01:37:54;;;;;;;0.45;0.40;;;;;;;29.61;37.34;99573.12;1855215;76;28216;-60
2022/07/02 01:40:43;;;;;;;0.50;0.50;;;;;;;29.62;37.33;99575.59;1868565;76;28271;-60
2022/07/02 01:43:32;;;;;;;0.60;0.60;;;;;;;29.60;37.34;99568.13;1856993;77;28059;-60
2022/07/02 01:46:20;;;;;;;0.50;0.50;;;;;;;29.61;37.40;99578.66;1869098;76;27992;-59
2022/07/02 01:49:08;;;;;;;0.42;0.42;;;;;;;29.55;37.38;99571.45;1869272;76;28271;-60
2022/07/02 01:51:57;;;;;;;0.40;0.40;;;;;;;29.59;37.41;99575.34;1869179;76;28070;-60
2022/07/02 01:54:46;;;;;;;0.50;0.50;;;;;;;29.58;37.43;99577.27;1869305;76;28036;-59
2022/07/02 01:57:41;;;;;;;0.50;0.50;;;;;;;29.59;37.41;99578.94;1857105;77;28196;-60
2022/07/02 02:00:25;;;;;;;0.60;0.60;;;;;;;29.60;37.39;99578.36;1857224;76;28170;-60
2022/07/02 02:03:13;;;;;;;1.20;0.60;;;;;;;29.62;37.35;99588.05;1840398;77;28792;-61
2022/07/02 02:06:01;;;;;;;0.60;0.60;;;;;;;29.61;37.40;99582.80;1847065;76;28085;-59
2022/07/02 02:08:50;;;;;;;0.60;0.50;;;;;;;29.59;37.37;99574.79;1869131;76;28141;-60
2022/07/02 02:11:39;;;;;;;0.35;0.35;;;;;;;29.59;37.36;99580.33;1869013;76;28043;-60
2022/07/02 02:14:27;;;;;;;0.45;0.45;;;;;;;29.57;37.43;99571.45;1835211;77;28186;-60
2022/07/02 02:17:16;;;;;;;0.50;0.50;;;;;;;29.57;37.42;99568.67;1864190;76;28176;-60
2022/07/02 02:20:05;;;;;;;0.50;0.50;;;;;;;29.59;37.41;99573.41;1868959;76;28141;-60
2022/07/02 02:22:54;;;;;;;0.60;0.60;;;;;;;29.58;37.42;99574.50;1857061;77;28267;-59
2022/07/02 02:25:42;;;;;;;0.50;0.50;;;;;;;29.55;37.41;99571.45;1825940;78;31074;-60
2022/07/02 02:28:31;;;;;;;0.50;0.50;;;;;;;29.55;37.46;99575.05;1829667;77;28001;-60
2022/07/02 02:31:19;;;;;;;0.80;0.55;;;;;;;29.52;37.57;99579.78;1856996;77;28381;-59
2022/07/02 02:34:08;;;;;;;1.67;0.50;;;;;;;29.53;37.50;99584.19;1854249;75;28232;-59
2022/07/02 02:36:56;;;;;;;0.60;0.60;;;;;;;29.54;37.51;99584.48;1856383;77;28089;-60
2022/07/02 02:39:44;;;;;;;0.50;0.50;;;;;;;29.54;37.45;99578.95;1868787;76;28081;-60
2022/07/02 02:42:33;;;;;;;0.60;0.60;;;;;;;29.52;37.50;99574.25;1856910;77;28224;-60
2022/07/02 02:45:21;;;;;;;0.50;0.50;;;;;;;29.54;37.53;99578.95;1837068;77;28134;-60
2022/07/02 02:48:10;;;;;;;0.78;0.47;;;;;;;29.55;37.46;99580.59;1866249;76;28133;-60
2022/07/02 02:50:59;;;;;;;0.50;0.50;;;;;;;29.53;37.47;99582.81;1857206;77;28078;-59
2022/07/02 02:53:48;;;;;;;0.50;0.50;;;;;;;29.55;37.47;99584.74;1857516;77;28115;-59
2022/07/02 02:56:37;;;;;;;0.50;0.50;;;;;;;29.53;37.50;99584.19;1837982;77;28258;-59
2022/07/02 02:59:25;;;;;;;0.60;0.60;;;;;;;29.56;37.46;99575.89;1798678;78;28250;-61
2022/07/02 03:02:13;;;;;;;0.50;0.50;;;;;;;29.55;37.48;99575.59;1816506;76;28280;-59
2022/07/02 03:05:02;;;;;;;0.40;0.40;;;;;;;29.50;37.64;99569.52;1822250;78;28139;-60
2022/07/02 03:07:50;;;;;;;0.50;0.47;;;;;;;29.50;37.64;99569.52;1759949;81;28395;-60
2022/07/02 03:10:38;;;;;;;0.50;0.50;;;;;;;29.52;37.57;99590.02;1829831;77;28036;-60
2022/07/02 03:13:27;;;;;;;0.50;0.50;;;;;;;29.53;37.52;99581.42;1868889;76;28757;-60
2022/07/02 03:16:15;;;;;;;0.50;0.50;;;;;;;29.56;37.52;99589.73;1825596;78;28178;-60
2022/07/02 03:19:03;;;;;;;0.50;0.50;;;;;;;29.55;37.49;99588.89;1855477;77;28154;-60
2022/07/02 03:21:52;;;;;;;1.47;0.50;;;;;;;29.55;37.48;99588.05;1857334;77;38317;-61
2022/07/02 03:24:40;;;;;;;0.57;0.57;;;;;;;29.54;37.49;99586.41;1857240;77;28036;-61
2022/07/02 03:27:30;;;;;;;0.53;0.53;;;;;;;29.51;37.54;99585.03;1837249;77;28170;-60
2022/07/02 03:30:18;;;;;;;0.50;0.50;;;;;;;29.48;37.54;99580.04;1865793;76;28203;-60
2022/07/02 03:33:06;;;;;;;0.60;0.60;;;;;;;29.52;37.51;99585.86;1869063;76;28145;-60
2022/07/02 03:35:55;;;;;;;0.40;0.40;;;;;;;29.50;37.54;99577.81;1844221;75;28484;-59
2022/07/02 03:38:44;;;;;;;0.40;0.40;;;;;;;29.52;37.57;99577.56;1825372;78;28190;-60
2022/07/02 03:41:32;;;;;;;0.50;0.50;;;;;;;29.53;37.51;99577.27;1852249;77;28123;-60
2022/07/02 03:44:20;;;;;;;0.50;0.50;;;;;;;29.47;37.61;99577.02;1868731;76;28137;-59
2022/07/02 03:47:08;;;;;;;0.50;0.50;;;;;;;29.50;37.60;99575.05;1869076;76;28067;-59
2022/07/02 03:49:57;;;;;;;0.50;0.50;;;;;;;29.47;37.56;99574.25;1869122;76;28057;-59
2022/07/02 03:52:45;;;;;;;1.20;0.40;;;;;;;29.49;37.53;99580.33;1857145;77;28244;-59
2022/07/02 03:55:33;;;;;;;1.10;0.50;;;;;;;29.49;37.57;99588.63;1857148;77;28252;-59
2022/07/02 03:58:22;;;;;;;0.50;0.50;;;;;;;29.49;37.60;99587.25;1825463;78;28151;-59
2022/07/02 04:01:10;;;;;;;0.60;0.60;;;;;;;29.51;37.53;99580.04;1854307;76;28219;-59
2022/07/02 04:03:59;;;;;;;0.40;0.40;;;;;;;29.47;37.59;99585.31;1850254;77;28126;-59
2022/07/02 04:06:48;;;;;;;1.00;0.50;;;;;;;29.49;37.58;99578.11;1824681;77;28215;-59
2022/07/02 04:09:36;;;;;;;0.70;0.62;;;;;;;29.45;37.65;99584.77;1823047;77;28302;-59
2022/07/02 04:12:24;;;;;;;0.50;0.50;;;;;;;29.47;37.62;99583.94;1832197;77;28223;-59
2022/07/02 04:15:13;;;;;;;0.50;0.50;;;;;;;29.47;37.59;99579.78;1832535;77;28220;-60
2022/07/02 04:18:01;;;;;;;0.55;0.55;;;;;;;29.47;37.59;99585.31;1828777;77;28223;-60
2022/07/02 04:20:50;;;;;;;0.72;0.62;;;;;;;29.47;37.60;99581.16;1804508;77;28136;-60
2022/07/02 04:23:38;;;;;;;0.60;0.60;;;;;;;29.46;37.64;99586.41;1842607;77;28626;-60
2022/07/02 04:26:26;;;;;;;0.50;0.50;;;;;;;29.47;37.58;99592.23;1822404;77;28271;-60
2022/07/02 04:29:15;;;;;;;0.50;0.50;;;;;;;29.49;37.61;99579.49;1827017;77;28337;-59
2022/07/02 04:32:04;;;;;;;0.50;0.50;;;;;;;29.49;37.58;99573.41;1801905;77;28180;-59
2022/07/02 04:34:53;;;;;;;0.68;0.47;;;;;;;29.49;37.57;99570.64;1834559;77;28231;-59
2022/07/02 04:37:41;;;;;;;0.60;0.60;;;;;;;29.48;37.55;99573.12;1821925;76;28326;-62
2022/07/02 04:40:30;;;;;;;0.70;0.70;;;;;;;29.47;37.60;99570.64;1822984;78;28309;-63
2022/07/02 04:43:18;;;;;;;0.70;0.70;;;;;;;29.23;35.24;99570.38;1832201;77;28407;-61
2022/07/02 04:46:06;;;;;;;0.60;0.60;;;;;;;28.99;34.29;99574.73;1794073;77;28291;-61
2022/07/02 04:48:54;;;;;;;0.62;0.62;;;;;;;28.75;34.14;99576.64;1824478;77;28240;-62
2022/07/02 04:51:42;;;;;;;0.60;0.60;;;;;;;28.57;34.15;99584.58;1807294;77;28154;-63
2022/07/02 04:54:31;;;;;;;0.60;0.60;;;;;;;28.43;34.10;99578.73;1822143;77;28242;-62
2022/07/02 04:57:19;;;;;;;0.50;0.50;;;;;;;28.28;34.05;99585.59;1840887;77;28173;-63
2022/07/02 05:00:09;;;;;;;0.60;0.60;;;;;;;28.18;33.98;99583.33;1812177;77;28384;-62
2022/07/02 05:02:57;;;;;;;0.97;0.70;;;;;;;28.05;34.00;99590.99;1809620;76;28158;-63
2022/07/02 05:05:46;;;;;;;0.78;0.78;;;;;;;27.90;34.14;99590.90;1846669;76;28036;-62
2022/07/02 05:08:34;;;;;;;0.50;0.50;;;;;;;27.81;34.14;99596.64;1857387;77;28177;-62
2022/07/02 05:11:22;;;;;;;0.68;0.68;;;;;;;27.77;34.23;99596.06;1868933;76;28223;-63
2022/07/02 05:14:11;;;;;;;0.70;0.70;;;;;;;27.73;34.17;99590.23;1868921;76;28012;-62
2022/07/02 05:16:59;;;;;;;0.62;0.62;;;;;;;27.69;34.24;99589.65;1869296;76;28571;-62
2022/07/02 05:19:48;;;;;;;0.50;0.50;;;;;;;27.65;34.27;99581.63;1857069;77;28316;-62
2022/07/02 05:22:36;;;;;;;0.50;0.50;;;;;;;27.58;34.28;99579.64;1839749;77;28386;-62
2022/07/02 05:25:24;;;;;;;0.75;0.60;;;;;;;27.55;34.34;99571.88;1857236;77;28227;-61
2022/07/02 05:28:13;;;;;;;0.60;0.60;;;;;;;27.48;34.48;99574.04;1869029;76;28171;-61
2022/07/02 05:31:01;;;;;;;1.40;0.50;;;;;;;27.38;34.63;99575.63;1869123;76;28133;-61
2022/07/02 05:33:50;;;;;;;0.60;0.60;;;;;;;27.32;34.81;99570.31;1849756;76;28208;-61
2022/07/02 05:36:38;;;;;;;0.70;0.70;;;;;;;27.31;34.88;99561.74;1869967;75;28315;-62
2022/07/02 05:39:26;;;;;;;0.60;0.50;;;;;;;27.27;34.87;99570.27;1841771;75;28201;-63
2022/07/02 05:42:14;;;;;;;0.60;0.60;;;;;;;27.19;34.98;99570.77;1840506;77;28194;-62
2022/07/02 05:45:03;;;;;;;0.90;0.77;;;;;;;27.06;35.21;99576.70;1868593;76;28208;-61
2022/07/02 05:47:52;;;;;;;0.80;0.60;;;;;;;27.06;35.29;99566.51;1869110;76;28264;-63
2022/07/02 05:50:40;;;;;;;0.95;0.60;;;;;;;27.05;35.32;99570.34;1857508;77;28037;-61
2022/07/02 05:53:29;;;;;;;0.60;0.60;;;;;;;27.03;35.30;99584.95;1869123;76;28201;-62
2022/07/02 05:56:17;;;;;;;0.50;0.50;;;;;;;27.05;35.41;99584.70;1858329;76;28305;-62
2022/07/02 05:59:06;;;;;;;0.57;0.57;;;;;;;27.04;35.49;99585.25;1859945;76;28215;-62
2022/07/02 06:01:54;;;;;;;0.60;0.60;;;;;;;27.05;35.45;99577.81;1868911;75;28712;-62
2022/07/02 06:04:42;;;;;;;0.68;0.60;;;;;;;27.05;35.45;99585.52;1832710;77;36834;-61
2022/07/02 06:07:40;;;;;;;0.75;0.72;;;;;;;27.00;35.57;99579.14;1865231;76;28210;-61
2022/07/02 06:10:29;;;;;;;0.70;0.70;;;;;;;26.98;35.57;99578.00;1869327;76;28073;-61
2022/07/02 06:13:17;;;;;;;0.65;0.65;;;;;;;26.99;35.60;99576.09;1869360;76;28102;-61
2022/07/02 06:16:06;;;;;;;0.60;0.60;;;;;;;26.96;35.57;99567.79;1837146;77;28216;-61
2022/07/02 06:18:54;;;;;;;0.80;0.70;;;;;;;26.99;35.56;99571.41;1866698;76;28065;-63
2022/07/02 06:21:43;;;;;;;1.15;0.70;;;;;;;26.97;35.49;99576.36;1869193;76;28228;-63
2022/07/02 06:24:31;;;;;;;0.78;0.68;;;;;;;26.99;35.48;99579.68;1869326;76;28648;-61
2022/07/02 06:27:19;;;;;;;0.60;0.60;;;;;;;26.99;35.48;99579.68;1849854;76;28207;-61
2022/07/02 06:30:09;;;;;;;1.07;0.97;;;;;;;27.00;35.53;99577.19;1869442;76;28133;-61
2022/07/02 06:32:57;;;;;;;0.75;0.70;;;;;;;26.95;35.59;99581.30;1869254;76;28072;-62
2022/07/02 06:35:45;;;;;;;1.05;0.95;;;;;;;26.98;35.60;99584.09;1868926;76;28246;-63
2022/07/02 06:38:34;;;;;;;0.55;0.55;;;;;;;26.96;35.62;99584.33;1858962;76;28005;-61
2022/07/02 06:44:30;;;;;;;0.90;0.90;;;;;;;26.92;35.58;99581.81;1860101;76;28259;-62
2022/07/02 06:47:19;;;;;;;0.78;0.78;;;;;;;26.89;35.71;99577.36;1869086;76;28299;-62
2022/07/02 06:50:10;;;;;;;0.90;0.90;;;;;;;26.84;35.81;99574.00;1869266;76;31135;-61
2022/07/02 06:52:58;;;;;;;0.60;0.60;;;;;;;26.78;35.86;99583.33;1869252;76;28274;-61
2022/07/02 06:55:46;;;;;;;0.70;0.70;;;;;;;26.80;35.97;99576.16;1869099;76;28105;-62
2022/07/02 06:58:35;;;;;;;0.70;0.70;;;;;;;26.81;36.02;99576.47;1869430;76;28067;-63
2022/07/02 07:01:24;;;;;;;0.80;0.80;;;;;;;26.80;35.97;99574.25;1837196;77;28158;-61
2022/07/02 07:04:13;;;;;;;0.75;0.75;;;;;;;26.79;36.06;99571.77;1842420;76;28146;-62
2022/07/02 07:07:04;;;;;;;0.68;0.68;;;;;;;26.79;36.07;99573.14;1869098;76;33034;-62
2022/07/02 07:09:52;;;;;;;0.90;0.90;;;;;;;26.87;35.99;99569.36;1834498;77;35064;-62
2022/07/02 07:12:40;;;;;;;1.00;0.95;;;;;;;26.88;35.97;99575.17;1868836;76;28186;-62
2022/07/02 07:15:29;;;;;;;0.90;0.90;;;;;;;26.83;35.91;99573.73;1869086;76;28371;-62
2022/07/02 07:18:17;;;;;;;1.60;1.05;;;;;;;26.85;35.85;99578.98;1868891;76;28074;-62
2022/07/02 07:21:06;;;;;;;0.70;0.70;;;;;;;26.84;35.87;99576.77;1869130;76;28219;-61
2022/07/02 07:23:54;;;;;;;0.90;0.80;;;;;;;26.91;35.75;99570.49;1869265;76;28039;-62
2022/07/02 07:26:43;;;;;;;1.70;0.80;;;;;;;26.87;35.70;99574.03;1869285;76;28210;-62
2022/07/02 07:29:31;;;;;;;0.90;0.90;;;;;;;26.84;35.73;99567.69;1869071;76;28222;-62
2022/07/02 07:32:19;;;;;;;0.83;0.83;;;;;;;26.79;35.67;99567.63;1869232;76;28127;-60
2022/07/02 07:35:09;;;;;;;0.70;0.70;;;;;;;26.81;35.53;99566.82;1869078;76;28044;-61
2022/07/02 07:37:59;;;;;;;0.80;0.80;;;;;;;26.83;35.46;99562.71;1864901;75;28291;-62
2022/07/02 07:40:47;;;;;;;0.80;0.80;;;;;;;26.90;35.44;99558.36;1862605;76;28269;-62
2022/07/02 07:43:36;;;;;;;0.85;0.82;;;;;;;26.94;35.37;99550.69;1837373;77;28323;-61
2022/07/02 07:46:24;;;;;;;0.68;0.68;;;;;;;26.95;35.33;99544.63;1829977;77;31226;-62
2022/07/02 07:49:14;;;;;;;0.80;0.80;;;;;;;26.95;35.30;99541.87;1869163;76;28203;-62
2022/07/02 07:52:02;;;;;;;0.82;0.70;;;;;;;26.98;35.24;99544.92;1869317;76;28259;-63
2022/07/02 07:54:50;;;;;;;0.70;0.70;;;;;;;27.00;35.33;99537.78;1837056;77;28181;-61
2022/07/02 07:57:39;;;;;;;0.70;0.70;;;;;;;27.07;35.31;99537.83;1864204;76;28194;-61
2022/07/02 08:00:28;;;;;;;0.93;0.70;;;;;;;27.08;35.28;99529.85;1869551;76;30921;-61
2022/07/02 08:03:22;;;;;;;0.93;0.65;;;;;;;27.15;35.32;99531.84;1867000;76;28159;-61
2022/07/02 08:06:06;;;;;;;0.73;0.73;;;;;;;27.16;35.27;99539.03;1855794;76;28175;-61
2022/07/02 08:08:55;;;;;;;0.60;0.60;;;;;;;27.10;35.22;99534.55;1865104;76;28258;-62
2022/07/02 08:11:44;;;;;;;0.80;0.80;;;;;;;27.12;35.29;99534.31;1873920;74;28306;-62
2022/07/02 08:14:32;;;;;;;1.25;0.80;;;;;;;27.13;35.26;99539.55;1862356;76;28530;-62
2022/07/02 08:17:20;;;;;;;0.78;0.78;;;;;;;27.18;35.17;99531.32;1878096;76;28188;-61
2022/07/02 08:20:10;;;;;;;0.80;0.80;;;;;;;27.21;35.16;99534.10;1869607;76;28189;-62
2022/07/02 08:22:59;;;;;;;0.80;0.70;;;;;;;27.17;35.29;99531.02;1864216;76;28231;-61
2022/07/02 08:25:47;;;;;;;0.60;0.60;;;;;;;27.22;35.29;99535.20;1881586;75;28057;-60
2022/07/02 08:28:36;;;;;;;0.60;0.60;;;;;;;27.21;35.32;99523.07;1878221;76;28206;-59
2022/07/02 08:31:24;;;;;;;0.70;0.70;;;;;;;27.25;35.41;99523.66;1866933;76;28192;-60
2022/07/02 08:34:13;;;;;;;1.52;0.78;;;;;;;27.31;35.34;99515.69;1878165;76;28036;-59
2022/07/02 08:37:02;;;;;;;0.60;0.60;;;;;;;27.35;35.27;99505.77;1845507;77;28198;-60
2022/07/02 08:39:50;;;;;;;0.60;0.60;;;;;;;27.38;35.19;99506.66;1880418;75;28184;-60
2022/07/02 08:42:42;;;;;;;1.62;0.70;;;;;;;27.47;35.09;99506.17;1878269;76;28147;-61
2022/07/02 08:45:33;;;;;;;0.45;0.45;;;;;;;27.50;35.06;99498.72;1878662;76;28142;-58
2022/07/02 08:48:23;;;;;;;0.60;0.60;;;;;;;27.51;35.02;99490.20;1846113;77;28166;-60
2022/07/02 08:51:15;;;;;;;0.50;0.50;;;;;;;27.51;35.07;99485.23;1872793;76;28060;-60
2022/07/02 08:54:03;;;;;;;0.60;0.60;;;;;;;27.55;35.05;99487.72;1878474;75;28043;-60
2022/07/02 08:56:54;;;;;;;0.60;0.60;;;;;;;27.58;35.06;99481.67;1860106;76;28042;-60
2022/07/02 08:59:43;;;;;;;0.55;0.55;;;;;;;27.63;35.01;99481.71;1856114;76;27992;-60
2022/07/02 09:02:32;;;;;;;0.60;0.60;;;;;;;27.69;35.08;99479.24;1872733;76;28131;-61
2022/07/02 09:05:22;;;;;;;0.70;0.70;;;;;;;27.70;35.12;99472.64;1842636;77;28177;-59
2022/07/02 09:08:12;;;;;;;0.53;0.53;;;;;;;27.73;35.14;99462.42;1832256;77;28354;-59
2022/07/02 09:11:02;;;;;;;0.67;0.67;;;;;;;27.73;35.20;99470.70;1802015;78;28341;-59
2022/07/02 09:13:53;;;;;;;0.70;0.70;;;;;;;27.71;35.37;99462.70;1806750;78;28230;-60
2022/07/02 09:16:42;;;;;;;0.53;0.50;;;;;;;27.73;35.33;99465.17;1798937;79;28161;-60
2022/07/02 09:19:30;;;;;;;1.30;0.80;;;;;;;27.76;35.42;99463.27;1792232;79;28383;-61
2022/07/02 09:22:18;;;;;;;0.50;0.50;;;;;;;27.79;35.37;99461.36;1801997;78;28252;-59
2022/07/02 09:25:09;;;;;;;1.10;0.90;;;;;;;27.82;35.49;99458.88;1810949;78;28628;-59
2022/07/02 09:28:03;;;;;;;0.97;0.67;;;;;;;27.84;35.51;99455.86;1811422;78;28274;-60
2022/07/02 09:30:51;;;;;;;1.95;0.78;;;;;;;27.87;35.54;99452.54;1783237;77;28637;-56
2022/07/02 09:33:41;;;;;;;1.40;0.78;;;;;;;27.87;35.50;99455.30;1806221;78;28316;-56
2022/07/02 09:36:29;;;;;;;1.27;0.85;;;;;;;27.90;36.14;99447.86;1777744;79;28577;-56
2022/07/02 09:39:29;;;;;;;0.60;0.60;;;;;;;27.91;36.03;99439.30;1807336;79;28339;-57
2022/07/02 09:42:29;;;;;;;1.10;0.70;;;;;;;27.96;35.86;99439.32;1792284;79;28431;-55
2022/07/02 09:45:18;;;;;;;0.98;0.70;;;;;;;27.96;35.80;99444.84;1801404;78;28327;-61
2022/07/02 09:48:07;;;;;;;0.93;0.78;;;;;;;27.97;36.44;99436.02;1823340;78;28268;-61
2022/07/02 09:50:57;;;;;;;0.70;0.70;;;;;;;27.99;36.65;99431.92;1825572;78;28204;-61
2022/07/02 09:53:51;;;;;;;1.45;0.62;;;;;;;28.00;36.50;99437.73;1822124;78;28328;-60
2022/07/02 09:56:41;;;;;;;0.90;0.90;;;;;;;28.03;36.42;99434.95;1801937;78;28349;-60
2022/07/02 09:59:32;;;;;;;0.75;0.75;;;;;;;28.05;36.35;99435.53;1818178;78;28256;-60
2022/07/02 10:02:24;;;;;;;0.80;0.80;;;;;;;28.08;36.44;99428.64;1854914;76;28227;-60
2022/07/02 10:05:12;;;;;;;1.62;0.80;;;;;;;28.09;36.51;99432.50;1852055;75;28193;-62
2022/07/02 10:08:05;;;;;;;1.52;0.70;;;;;;;28.11;36.60;99430.84;1844083;76;28193;-61
2022/07/02 10:10:54;;;;;;;1.10;0.57;;;;;;;28.15;36.57;99434.70;1855776;77;28037;-61
2022/07/02 10:13:43;;;;;;;0.80;0.80;;;;;;;28.16;36.74;99438.59;1857345;77;28592;-60
2022/07/02 10:16:33;;;;;;;1.50;0.60;;;;;;;28.16;36.77;99434.45;1856148;76;28281;-60
2022/07/02 10:19:22;;;;;;;0.60;0.60;;;;;;;28.15;36.76;99428.63;1868869;76;28237;-60
2022/07/02 10:22:11;;;;;;;0.62;0.62;;;;;;;28.17;36.85;99433.91;1849859;77;28179;-60
2022/07/02 10:25:00;;;;;;;0.50;0.50;;;;;;;28.17;36.94;99431.14;1883695;75;28154;-60
2022/07/02 10:27:51;;;;;;;0.60;0.60;;;;;;;28.14;36.96;99426.99;1868943;76;28034;-60
2022/07/02 10:30:41;;;;;;;0.60;0.60;;;;;;;28.15;37.07;99427.80;1844916;76;28207;-60
2022/07/02 10:33:41;;;;;;;0.62;0.62;;;;;;;28.15;37.09;99421.73;1831184;77;28045;-61
2022/07/02 10:36:30;;;;;;;1.50;0.68;;;;;;;28.16;37.12;99423.41;1857133;77;28146;-61
2022/07/02 10:39:19;;;;;;;0.60;0.50;;;;;;;28.17;37.18;99414.57;1866028;76;28181;-61
2022/07/02 10:42:08;;;;;;;1.27;0.70;;;;;;;28.17;37.22;99411.23;1851009;76;28193;-60
2022/07/02 10:44:56;;;;;;;0.70;0.70;;;;;;;28.20;37.24;99415.39;1849071;77;28296;-61
2022/07/02 10:48:06;;;;;;;0.90;0.50;;;;;;;28.19;37.28;99409.06;1860137;76;30195;-61
2022/07/02 10:50:59;;;;;;;0.70;0.70;;;;;;;28.22;37.36;99413.17;1857214;77;28139;-60
2022/07/02 10:54:00;;;;;;;1.12;0.70;;;;;;;28.27;37.38;99410.42;1867676;76;28139;-60
2022/07/02 10:56:51;;;;;;;0.68;0.68;;;;;;;28.24;37.58;99407.66;1857153;77;28071;-60
2022/07/02 10:59:40;;;;;;;0.68;0.68;;;;;;;28.24;37.63;99399.95;1868893;76;28056;-60
2022/07/02 11:02:36;;;;;;;0.65;0.65;;;;;;;28.24;37.66;99397.98;1862701;76;28293;-59
2022/07/02 11:05:25;;;;;;;1.02;0.60;;;;;;;28.30;37.62;99396.08;1843755;77;28269;-61
2022/07/02 11:08:33;;;;;;;0.60;0.60;;;;;;;28.29;37.70;99393.02;1868849;76;28193;-61
2022/07/02 11:11:37;;;;;;;1.00;0.40;;;;;;;28.33;37.57;99388.63;1837150;77;28129;-61
2022/07/02 11:14:28;;;;;;;0.60;0.60;;;;;;;28.29;37.61;99385.57;1837137;77;28014;-61
2022/07/02 11:17:19;;;;;;;2.40;0.75;;;;;;;28.28;37.76;99379.78;1857257;77;28083;-60
2022/07/02 11:20:09;;;;;;;0.50;0.50;;;;;;;28.28;37.84;99378.41;1857118;77;28289;-60
2022/07/02 11:22:57;;;;;;;0.60;0.60;;;;;;;28.36;37.67;99377.00;1857258;77;33101;-61
2022/07/02 11:25:46;;;;;;;0.60;0.60;;;;;;;28.36;37.71;99370.93;1870922;76;28158;-60
2022/07/02 11:28:38;;;;;;;0.70;0.70;;;;;;;28.40;37.69;99376.75;1856949;77;28096;-60
2022/07/02 11:31:26;;;;;;;0.60;0.60;;;;;;;28.39;37.58;99374.53;1848904;76;28273;-60
2022/07/02 11:34:24;;;;;;;0.70;0.50;;;;;;;28.42;37.65;99375.92;1857186;77;28092;-60
2022/07/02 11:37:24;;;;;;;0.78;0.55;;;;;;;28.41;37.60;99371.48;1850414;76;28246;-60
2022/07/02 11:40:20;;;;;;;0.60;0.60;;;;;;;28.41;37.63;99367.34;1866222;75;28002;-60
2022/07/02 11:43:20;;;;;;;0.65;0.65;;;;;;;28.40;37.76;99367.88;1867101;76;28487;-59
2022/07/02 11:46:09;;;;;;;0.53;0.53;;;;;;;28.41;37.81;99368.72;1868697;76;28158;-60
2022/07/02 11:48:59;;;;;;;0.75;0.65;;;;;;;28.40;37.75;99362.36;1826310;78;28258;-60
2022/07/02 11:51:49;;;;;;;0.60;0.60;;;;;;;28.43;37.83;99365.12;1825711;78;28193;-60
2022/07/02 11:54:41;;;;;;;0.70;0.70;;;;;;;28.42;37.78;99361.56;1860943;76;28222;-60
2022/07/02 11:57:34;;;;;;;0.65;0.65;;;;;;;28.43;37.89;99351.31;1857117;77;28079;-60
2022/07/02 12:00:26;;;;;;;0.50;0.50;;;;;;;28.46;37.84;99355.75;1856941;77;28056;-60
2022/07/02 12:03:15;;;;;;;0.50;0.50;;;;;;;28.46;37.81;99352.15;1851546;76;28153;-60
2022/07/02 12:06:04;;;;;;;0.53;0.50;;;;;;;28.46;37.75;99350.22;1863159;76;28240;-60
2022/07/02 12:08:54;;;;;;;1.10;0.70;;;;;;;28.45;37.83;99347.16;1856860;76;28224;-60
2022/07/02 12:11:44;;;;;;;0.60;0.60;;;;;;;28.46;37.86;99343.31;1866688;76;28042;-60
2022/07/02 12:14:33;;;;;;;0.62;0.62;;;;;;;28.46;37.78;99332.80;1851294;75;28170;-60
2022/07/02 12:17:22;;;;;;;0.70;0.70;;;;;;;28.50;37.73;99338.87;1868958;76;28173;-61
2022/07/02 12:20:11;;;;;;;0.60;0.60;;;;;;;28.46;37.76;99324.52;1868929;76;28000;-60
2022/07/02 12:22:59;;;;;;;0.57;0.57;;;;;;;28.46;37.65;99323.13;1868949;76;38371;-61
2022/07/02 12:25:49;;;;;;;0.60;0.50;;;;;;;28.46;37.68;99321.20;1849990;76;28141;-61
2022/07/02 12:31:50;;;;;;;0.50;0.50;;;;;;;28.46;37.74;99315.67;1865705;75;28030;-60
2022/07/02 12:34:47;;;;;;;0.50;0.50;;;;;;;28.45;37.79;99318.73;1866739;76;28162;-61
2022/07/02 12:37:42;;;;;;;0.60;0.60;;;;;;;28.46;37.92;99316.22;1867245;76;28161;-61
2022/07/02 12:40:30;;;;;;;0.50;0.50;;;;;;;28.47;37.91;99320.08;1873606;75;28251;-61
2022/07/02 12:43:23;;;;;;;0.50;0.50;;;;;;;28.47;37.90;99310.98;1865936;76;28184;-61
2022/07/02 12:46:11;;;;;;;0.47;0.47;;;;;;;28.50;38.00;99320.08;1868445;76;28000;-61
2022/07/02 12:49:00;;;;;;;0.57;0.57;;;;;;;28.50;38.17;99325.06;1868435;76;28105;-60
2022/07/02 12:51:54;;;;;;;1.70;0.60;;;;;;;28.53;38.27;99315.39;1836374;77;28174;-59
2022/07/02 12:54:43;;;;;;;0.50;0.50;;;;;;;28.51;38.43;99323.13;1865784;75;28163;-61
2022/07/02 12:57:31;;;;;;;0.67;0.67;;;;;;;28.49;38.45;99314.30;1868125;76;28179;-60
2022/07/02 13:00:20;;;;;;;0.60;0.60;;;;;;;28.51;38.40;99315.67;1868706;76;28035;-61
2022/07/02 13:03:10;;;;;;;0.70;0.50;;;;;;;28.53;38.36;99311.24;1854284;74;28103;-61
2022/07/02 13:06:00;;;;;;;0.40;0.40;;;;;;;28.51;38.34;99308.77;1869443;76;28381;-58
2022/07/02 13:08:49;;;;;;;0.65;0.65;;;;;;;28.51;38.38;99311.53;1869359;75;28048;-61
2022/07/02 13:11:37;;;;;;;1.60;1.50;;;;;;;28.52;38.41;99309.02;1858877;76;28075;-60
2022/07/02 13:14:26;;;;;;;2.52;2.33;;;;;;;28.56;38.46;99317.06;1837024;77;28277;-59
2022/07/02 13:17:14;;;;;;;3.05;2.77;;;;;;;28.55;38.43;99293.28;1866208;76;28469;-61
2022/07/02 13:20:04;;;;;;;2.40;2.20;;;;;;;28.52;38.39;99298.55;1873825;76;28205;-61
2022/07/02 13:22:53;;;;;;;2.20;2.00;;;;;;;28.57;38.32;99295.75;1864549;76;28186;-60
2022/07/02 13:25:41;;;;;;;2.47;2.17;;;;;;;28.54;38.30;99298.52;1874162;75;28245;-61
2022/07/02 13:28:29;;;;;;;2.20;2.10;;;;;;;28.57;38.27;99292.44;1866385;76;28207;-60